Time;durP1;ratioP1;P1;durP2;ratioP2;P2;SDS_P1;SDS_P2;PMS_P1;PMS_P2;Temp;Humidity;BMP_temperature;BMP_pressure;BME280_temperature;BME280_humidity;BME280_pressure;Samples;Min_cycle;Max_cycle;Signal;HPM_P1;HPM_P2
2022/09/10 00:01:45;;;;;;;1.50;0.80;;;;;;;18.42;58.96;99385.22;4972686;28;20660;-73
2022/09/10 00:04:13;;;;;;;1.83;0.77;;;;;;;18.34;59.73;99378.81;4973733;28;20225;-74
2022/09/10 00:06:39;;;;;;;1.70;0.90;;;;;;;18.27;60.43;99379.59;4958923;28;20231;-74
2022/09/10 00:09:05;;;;;;;1.00;0.70;;;;;;;18.20;61.21;99389.16;4975901;28;20823;-74
2022/09/10 00:11:31;;;;;;;4.70;1.00;;;;;;;18.10;61.58;99387.41;4972926;28;20475;-74
2022/09/10 00:14:01;;;;;;;1.20;0.70;;;;;;;18.00;62.38;99397.25;4976944;28;20471;-74
2022/09/10 00:16:28;;;;;;;1.87;1.00;;;;;;;17.93;63.22;99385.59;4975526;28;21251;-74
2022/09/10 00:18:54;;;;;;;2.07;1.10;;;;;;;17.85;63.43;99393.47;4974020;28;20473;-74
2022/09/10 00:21:20;;;;;;;3.28;0.90;;;;;;;17.80;63.81;99390.41;4972871;28;20530;-75
2022/09/10 00:23:46;;;;;;;1.77;1.17;;;;;;;17.75;64.20;99382.03;4978230;28;20226;-75
2022/09/10 00:26:18;;;;;;;1.70;1.17;;;;;;;17.71;64.45;99389.44;4978878;28;20211;-76
2022/09/10 00:28:44;;;;;;;1.52;0.88;;;;;;;17.68;64.94;99389.75;4977857;28;20520;-76
2022/09/10 00:31:12;;;;;;;3.93;1.10;;;;;;;17.62;65.42;99390.34;4980110;28;20260;-76
2022/09/10 00:33:38;;;;;;;2.20;1.00;;;;;;;17.58;65.94;99387.16;4960590;28;20464;-76
2022/09/10 00:36:12;;;;;;;2.13;0.95;;;;;;;17.58;65.95;99389.81;4953083;28;20475;-76
2022/09/10 00:38:38;;;;;;;2.40;1.10;;;;;;;17.58;66.14;99386.28;4976086;28;20303;-76
2022/09/10 00:41:05;;;;;;;2.83;0.90;;;;;;;17.58;66.67;99386.28;4976093;28;20211;-75
2022/09/10 00:43:57;;;;;;;1.40;1.30;;;;;;;17.55;66.71;99390.13;4979405;28;20491;-75
2022/09/10 00:46:24;;;;;;;3.38;1.20;;;;;;;17.53;66.68;99388.59;4958895;28;20228;-75
2022/09/10 00:48:51;;;;;;;1.70;1.08;;;;;;;17.54;66.93;99387.59;4972695;28;20298;-75
2022/09/10 00:51:18;;;;;;;1.70;1.00;;;;;;;17.55;67.12;99386.59;4953528;28;20336;-75
2022/09/10 00:53:44;;;;;;;3.75;1.20;;;;;;;17.55;67.18;99390.13;4973192;28;21043;-76
2022/09/10 00:56:10;;;;;;;2.40;0.93;;;;;;;17.55;67.42;99382.16;4971088;28;20679;-75
2022/09/10 00:58:35;;;;;;;3.33;1.47;;;;;;;17.56;67.61;99383.81;4975535;28;20477;-75
2022/09/10 01:01:01;;;;;;;5.67;2.47;;;;;;;17.59;67.82;99387.97;4980234;28;20233;-76
2022/09/10 01:03:30;;;;;;;1.00;0.90;;;;;;;17.60;67.94;99382.50;4999385;28;20216;-75
2022/09/10 01:05:57;;;;;;;2.85;1.40;;;;;;;17.61;68.23;99386.03;4981414;28;20211;-74
2022/09/10 01:08:22;;;;;;;1.50;1.08;;;;;;;17.60;68.44;99385.16;5000425;28;20241;-75
2022/09/10 01:11:06;;;;;;;1.20;0.90;;;;;;;17.58;68.54;99381.84;4983792;28;20618;-75
2022/09/10 01:13:55;;;;;;;1.40;0.87;;;;;;;17.59;68.79;99387.97;4982376;28;20250;-75
2022/09/10 01:16:40;;;;;;;2.00;1.00;;;;;;;17.58;68.89;99386.28;4964664;28;20464;-75
2022/09/10 01:19:36;;;;;;;1.30;1.10;;;;;;;17.57;68.92;99384.63;4980207;28;20288;-76
2022/09/10 01:22:17;;;;;;;2.90;1.13;;;;;;;17.56;69.20;99388.28;4982055;28;20280;-77
2022/09/10 01:24:54;;;;;;;1.40;1.00;;;;;;;17.54;69.07;99382.28;4982822;28;20482;-76
2022/09/10 01:27:32;;;;;;;1.20;0.88;;;;;;;17.51;69.30;99387.88;4977508;28;20241;-76
2022/09/10 01:30:05;;;;;;;4.60;1.10;;;;;;;17.50;69.52;99378.22;4976031;28;21458;-76
2022/09/10 01:32:40;;;;;;;1.75;1.25;;;;;;;17.48;69.62;99381.06;5055288;23;20353;-74
2022/09/10 01:35:27;;;;;;;2.85;1.05;;;;;;;17.46;69.64;99372.38;4935580;28;20238;-75
2022/09/10 01:37:58;;;;;;;5.28;1.45;;;;;;;17.45;69.67;99374.22;4950686;28;20233;-74
2022/09/10 01:40:28;;;;;;;1.98;1.10;;;;;;;17.45;70.05;99376.03;4952007;28;20209;-74
2022/09/10 01:43:10;;;;;;;2.97;1.25;;;;;;;17.39;70.04;99372.16;4958905;28;20451;-76
2022/09/10 01:45:51;;;;;;;2.60;1.27;;;;;;;17.34;70.43;99371.75;4966135;28;20624;-76
2022/09/10 01:48:49;;;;;;;2.05;1.20;;;;;;;17.31;70.42;99357.91;4962936;28;21019;-75
2022/09/10 01:51:39;;;;;;;1.20;1.10;;;;;;;17.29;70.69;99359.91;4916061;28;20424;-77
2022/09/10 01:54:36;;;;;;;7.68;1.50;;;;;;;17.27;70.61;99344.13;4947116;28;20343;-77
2022/09/10 01:57:23;;;;;;;3.00;1.60;;;;;;;17.28;70.44;99345.78;4948665;28;20830;-77
2022/09/10 02:00:00;;;;;;;2.78;1.60;;;;;;;17.31;70.51;99350.81;4957291;28;20468;-76
2022/09/10 02:02:36;;;;;;;1.55;1.10;;;;;;;17.34;70.43;99352.34;4945790;28;20231;-76
2022/09/10 02:05:05;;;;;;;2.10;1.30;;;;;;;17.34;70.73;99352.34;4964700;28;20251;-76
2022/09/10 02:07:33;;;;;;;4.07;1.10;;;;;;;17.34;70.47;99355.81;4967206;28;20205;-77
2022/09/10 02:10:01;;;;;;;2.20;1.30;;;;;;;17.34;70.59;99353.16;4958108;28;20245;-76
2022/09/10 02:12:30;;;;;;;3.53;2.20;;;;;;;17.34;70.75;99353.16;4960659;28;20312;-76
2022/09/10 02:15:07;;;;;;;1.23;1.13;;;;;;;17.33;70.70;99350.66;4959516;28;20763;-76
2022/09/10 02:17:46;;;;;;;2.15;1.27;;;;;;;17.31;70.82;99348.16;4947124;28;20211;-76
2022/09/10 02:20:13;;;;;;;1.83;1.07;;;;;;;17.28;70.85;99348.44;4947693;28;20240;-74
2022/09/10 02:22:43;;;;;;;1.60;1.00;;;;;;;17.26;70.89;99339.78;4957662;28;20493;-75
2022/09/10 02:25:08;;;;;;;2.92;1.20;;;;;;;17.22;71.09;99354.34;4941843;28;20236;-76
2022/09/10 02:27:37;;;;;;;2.72;1.05;;;;;;;17.21;71.09;99361.47;4958632;28;20240;-75
2022/09/10 02:30:04;;;;;;;9.33;1.10;;;;;;;17.19;71.25;99354.63;4937038;28;20295;-76
2022/09/10 02:32:30;;;;;;;2.08;1.42;;;;;;;17.17;71.27;99351.28;4936978;28;21038;-76
2022/09/10 02:34:58;;;;;;;1.60;1.07;;;;;;;17.13;71.37;99355.22;4956323;28;20289;-74
2022/09/10 02:37:28;;;;;;;1.92;1.23;;;;;;;17.13;71.34;99355.22;4956866;28;20310;-76
2022/09/10 02:39:54;;;;;;;1.63;1.20;;;;;;;17.14;71.15;99359.53;4954371;28;20249;-75
2022/09/10 02:42:19;;;;;;;1.42;1.10;;;;;;;17.14;71.21;99365.66;4956807;28;20701;-75
2022/09/10 02:44:46;;;;;;;3.30;1.52;;;;;;;17.14;71.23;99364.84;4938338;28;20639;-76
2022/09/10 02:47:12;;;;;;;1.33;1.05;;;;;;;17.12;71.21;99364.16;4956638;28;20699;-78
2022/09/10 02:49:38;;;;;;;2.30;1.10;;;;;;;17.12;71.33;99359.69;4962141;28;20263;-76
2022/09/10 02:52:05;;;;;;;1.35;1.10;;;;;;;17.12;71.35;99364.16;4941375;28;21361;-76
2022/09/10 02:54:31;;;;;;;1.30;1.20;;;;;;;17.13;71.20;99360.53;4953828;28;20198;-76
2022/09/10 02:56:56;;;;;;;3.00;1.50;;;;;;;17.14;71.17;99356.88;4960480;28;20777;-76
2022/09/10 02:59:23;;;;;;;2.07;1.20;;;;;;;17.14;71.19;99363.03;4951416;28;20260;-77
2022/09/10 03:01:49;;;;;;;1.85;1.10;;;;;;;17.13;71.20;99357.88;4949074;28;20235;-76
2022/09/10 03:04:15;;;;;;;1.73;1.30;;;;;;;17.15;71.34;99361.22;4947907;28;20485;-78
2022/09/10 03:06:42;;;;;;;2.75;1.40;;;;;;;17.16;71.56;99354.94;4963314;28;20209;-78
2022/09/10 03:09:08;;;;;;;1.85;1.20;;;;;;;17.16;71.26;99354.94;4962878;28;20808;-76
2022/09/10 03:11:37;;;;;;;1.58;1.30;;;;;;;17.14;71.13;99362.19;4950458;28;20237;-78
2022/09/10 03:14:02;;;;;;;1.33;0.95;;;;;;;17.12;71.12;99359.69;4961191;28;20197;-78
2022/09/10 03:16:30;;;;;;;2.90;1.02;;;;;;;17.06;71.11;99359.44;4964390;28;20336;-77
2022/09/10 03:18:55;;;;;;;1.37;1.27;;;;;;;17.06;71.00;99356.78;4961261;28;20210;-78
2022/09/10 03:21:23;;;;;;;1.63;1.00;;;;;;;17.07;70.93;99355.81;4950377;28;20240;-78
2022/09/10 03:23:51;;;;;;;1.70;1.00;;;;;;;17.09;70.89;99361.78;4951299;28;20231;-76
2022/09/10 03:26:24;;;;;;;3.83;1.27;;;;;;;17.07;70.83;99356.63;4949971;28;20202;-77
2022/09/10 03:28:50;;;;;;;4.15;1.00;;;;;;;17.06;70.81;99364.72;4961963;28;20209;-76
2022/09/10 03:31:18;;;;;;;1.50;0.93;;;;;;;17.02;70.59;99369.50;4949323;28;20330;-76
2022/09/10 03:33:46;;;;;;;4.20;1.02;;;;;;;17.01;70.52;99363.38;4944022;28;20205;-76
2022/09/10 03:36:12;;;;;;;2.00;1.13;;;;;;;16.99;70.39;99370.63;4963636;28;20215;-76
2022/09/10 03:38:39;;;;;;;2.70;1.10;;;;;;;16.99;70.37;99375.94;4944194;28;20567;-76
2022/09/10 03:41:04;;;;;;;1.33;1.00;;;;;;;16.99;70.43;99377.75;4939797;28;20219;-78
2022/09/10 03:43:30;;;;;;;5.13;1.17;;;;;;;17.01;70.26;99370.47;4957355;28;20250;-76
2022/09/10 03:45:56;;;;;;;1.05;0.95;;;;;;;17.02;70.19;99374.81;4944873;28;20194;-76
2022/09/10 03:48:22;;;;;;;1.80;1.20;;;;;;;17.05;70.20;99389.59;4961743;28;20267;-77
2022/09/10 03:50:49;;;;;;;2.05;1.00;;;;;;;17.05;70.13;99389.59;4961386;28;20222;-76
2022/09/10 03:53:17;;;;;;;1.70;1.20;;;;;;;17.05;70.54;99390.44;4962769;28;20200;-78
2022/09/10 03:55:47;;;;;;;2.17;1.45;;;;;;;17.06;70.51;99397.41;4947991;28;20890;-76
2022/09/10 03:58:16;;;;;;;1.85;1.05;;;;;;;17.06;70.67;99399.22;4948825;28;20201;-77
2022/09/10 04:00:44;;;;;;;1.90;1.20;;;;;;;17.03;71.04;99403.00;4945604;28;20232;-76
2022/09/10 04:03:13;;;;;;;3.85;1.23;;;;;;;17.00;71.13;99401.47;4962202;28;20732;-76
2022/09/10 04:05:44;;;;;;;1.90;1.17;;;;;;;16.95;71.55;99398.41;4959955;28;20224;-78
2022/09/10 04:08:11;;;;;;;1.10;0.90;;;;;;;16.93;71.78;99416.31;4963375;28;20287;-77
2022/09/10 04:10:38;;;;;;;1.63;1.10;;;;;;;16.88;72.23;99413.25;4956198;28;20263;-78
2022/09/10 04:13:03;;;;;;;4.18;1.38;;;;;;;16.85;72.33;99416.19;4954329;28;20206;-80
2022/09/10 04:15:31;;;;;;;2.45;1.10;;;;;;;16.81;72.72;99406.84;4958045;28;20223;-77
2022/09/10 04:17:57;;;;;;;1.60;1.10;;;;;;;16.75;73.01;99408.22;4947727;28;20318;-80
2022/09/10 04:20:24;;;;;;;1.10;1.00;;;;;;;16.72;73.21;99413.81;4965329;28;20474;-77
2022/09/10 04:22:55;;;;;;;2.65;1.10;;;;;;;16.68;73.46;99407.09;4965157;28;20215;-79
2022/09/10 04:25:21;;;;;;;1.33;1.10;;;;;;;16.65;73.69;99412.69;4967667;28;20248;-82
2022/09/10 04:27:48;;;;;;;4.50;1.30;;;;;;;16.63;73.75;99422.59;4965189;28;21027;-78
2022/09/10 04:30:14;;;;;;;1.48;1.20;;;;;;;16.60;73.89;99409.59;4966397;28;20208;-77
2022/09/10 04:32:39;;;;;;;1.90;1.20;;;;;;;16.58;74.05;99408.94;4962060;28;20224;-77
2022/09/10 04:35:05;;;;;;;3.93;1.70;;;;;;;16.58;74.25;99403.63;4951996;28;20295;-77
2022/09/10 04:37:32;;;;;;;4.15;1.67;;;;;;;16.56;74.24;99411.72;4950282;28;20665;-78
2022/09/10 04:39:57;;;;;;;1.83;1.70;;;;;;;16.56;74.28;99416.19;4951626;28;20211;-78
2022/09/10 04:42:23;;;;;;;2.90;1.30;;;;;;;16.54;74.43;99413.66;4951003;28;20755;-79
2022/09/10 04:44:50;;;;;;;1.70;1.40;;;;;;;16.54;74.58;99408.38;4968757;28;20916;-77
2022/09/10 04:47:17;;;;;;;2.20;1.53;;;;;;;16.55;74.69;99420.66;4951628;28;20324;-77
2022/09/10 04:49:43;;;;;;;1.35;1.25;;;;;;;16.56;74.75;99411.72;4965551;28;20201;-77
2022/09/10 04:52:10;;;;;;;3.43;1.30;;;;;;;16.54;74.78;99411.00;4963509;28;20223;-77
2022/09/10 04:54:37;;;;;;;2.50;1.20;;;;;;;16.55;74.78;99412.72;4966976;28;20940;-78
2022/09/10 04:57:04;;;;;;;1.87;1.33;;;;;;;16.56;74.93;99409.06;4951715;28;20293;-80
2022/09/10 04:59:30;;;;;;;4.25;1.58;;;;;;;16.54;74.91;99418.13;4966661;28;20205;-80
2022/09/10 05:01:56;;;;;;;1.53;1.20;;;;;;;16.52;75.07;99407.66;4962776;28;20219;-78
2022/09/10 05:04:22;;;;;;;2.10;1.90;;;;;;;16.51;74.98;99408.66;4944952;28;20256;-79
2022/09/10 05:06:49;;;;;;;2.58;1.13;;;;;;;16.53;75.23;99408.53;4949158;28;20222;-77
2022/09/10 05:09:19;;;;;;;3.10;1.63;;;;;;;16.53;75.25;99405.88;4948803;28;20200;-77
2022/09/10 05:11:48;;;;;;;3.10;1.65;;;;;;;16.53;75.28;99412.00;4963804;28;20717;-80
2022/09/10 05:14:15;;;;;;;2.92;1.70;;;;;;;16.54;75.23;99410.19;4952737;28;20203;-77
2022/09/10 05:16:40;;;;;;;3.97;1.40;;;;;;;16.55;75.30;99402.09;4958842;28;20208;-79
2022/09/10 05:19:06;;;;;;;1.73;1.60;;;;;;;16.57;75.14;99402.78;4943756;28;20459;-77
2022/09/10 05:21:37;;;;;;;1.80;1.50;;;;;;;16.59;75.16;99414.09;4955604;28;20229;-80
2022/09/10 05:24:03;;;;;;;1.60;1.50;;;;;;;16.62;75.24;99409.47;4960955;28;20231;-79
2022/09/10 05:26:28;;;;;;;4.40;2.23;;;;;;;16.62;75.14;99407.66;4944283;28;21061;-77
2022/09/10 05:28:58;;;;;;;3.90;2.25;;;;;;;16.63;75.11;99409.31;4961463;28;20892;-77
2022/09/10 05:31:24;;;;;;;1.17;1.08;;;;;;;16.62;75.26;99409.47;4963753;28;20332;-79
2022/09/10 05:33:50;;;;;;;2.10;1.40;;;;;;;16.65;75.43;99414.50;4960619;28;20486;-79
2022/09/10 05:36:16;;;;;;;7.30;1.20;;;;;;;16.66;75.60;99411.72;4960601;28;20512;-79
2022/09/10 05:38:44;;;;;;;1.25;1.05;;;;;;;16.68;75.45;99414.22;4942627;28;20233;-78
2022/09/10 05:41:09;;;;;;;3.78;1.20;;;;;;;16.68;75.52;99416.88;4963188;28;20227;-77
2022/09/10 05:43:36;;;;;;;1.67;1.10;;;;;;;16.70;75.42;99415.75;4963613;28;20237;-75
2022/09/10 05:46:03;;;;;;;4.13;1.10;;;;;;;16.72;75.31;99413.81;4947272;28;20277;-77
2022/09/10 05:48:29;;;;;;;3.35;1.10;;;;;;;16.76;75.33;99417.00;4967278;28;20227;-75
2022/09/10 05:50:56;;;;;;;5.70;2.65;;;;;;;16.77;75.42;99422.19;4965956;28;20231;-77
2022/09/10 05:53:22;;;;;;;1.30;1.00;;;;;;;16.80;75.28;99423.75;4946784;28;20208;-77
2022/09/10 05:55:48;;;;;;;2.15;1.30;;;;;;;16.83;75.16;99423.44;4966641;28;20200;-77
2022/09/10 05:58:15;;;;;;;2.30;1.48;;;;;;;16.84;75.49;99430.41;4950503;28;20797;-77
2022/09/10 06:00:44;;;;;;;2.83;1.37;;;;;;;16.86;75.27;99422.31;4964394;28;20229;-77
2022/09/10 06:03:10;;;;;;;2.17;1.30;;;;;;;16.86;75.31;99428.47;4966628;28;20900;-77
2022/09/10 06:05:52;;;;;;;3.20;1.25;;;;;;;16.90;75.59;99429.00;4965641;28;20198;-77
2022/09/10 06:08:22;;;;;;;3.05;1.40;;;;;;;16.91;75.52;99442.16;4946775;28;20214;-77
2022/09/10 06:10:59;;;;;;;1.83;1.20;;;;;;;16.92;75.59;99443.81;4968727;28;20708;-77
2022/09/10 06:13:26;;;;;;;2.50;1.80;;;;;;;16.91;75.68;99439.50;4950978;28;20227;-77
2022/09/10 06:15:52;;;;;;;2.63;1.40;;;;;;;16.93;75.67;99441.97;4947694;28;20325;-78
2022/09/10 06:18:18;;;;;;;1.93;1.53;;;;;;;16.94;75.67;99448.97;4962884;28;20208;-78
2022/09/10 06:20:46;;;;;;;2.50;1.65;;;;;;;16.94;75.72;99446.34;4945531;28;20477;-77
2022/09/10 06:23:16;;;;;;;3.20;1.50;;;;;;;16.98;75.68;99448.53;4962194;28;20288;-77
2022/09/10 06:25:43;;;;;;;3.22;1.85;;;;;;;17.00;75.75;99445.75;4965896;28;20312;-78
2022/09/10 06:28:11;;;;;;;3.00;1.30;;;;;;;17.02;75.67;99452.59;4965640;28;20665;-78
2022/09/10 06:30:36;;;;;;;2.95;1.90;;;;;;;17.05;75.70;99451.47;4954928;28;20641;-78
2022/09/10 06:33:02;;;;;;;2.37;1.60;;;;;;;17.10;75.59;99454.53;4967325;28;20313;-78
2022/09/10 06:35:28;;;;;;;3.13;1.73;;;;;;;17.15;75.32;99454.94;4968914;28;20213;-78
2022/09/10 06:37:57;;;;;;;4.30;1.40;;;;;;;17.21;75.42;99450.88;4969591;28;20210;-77
2022/09/10 06:40:26;;;;;;;5.63;1.67;;;;;;;17.27;75.18;99457.44;4952101;28;20213;-78
2022/09/10 06:42:55;;;;;;;1.80;1.67;;;;;;;17.29;74.93;99458.97;4950398;28;20233;-78
2022/09/10 06:45:40;;;;;;;2.80;1.70;;;;;;;17.29;75.06;99463.44;4969926;28;20228;-77
2022/09/10 06:48:32;;;;;;;3.72;1.73;;;;;;;17.27;75.05;99466.22;4949730;28;20516;-78
2022/09/10 06:51:00;;;;;;;4.77;2.10;;;;;;;17.26;75.10;99451.28;4969991;28;20592;-78
2022/09/10 06:53:32;;;;;;;3.00;1.60;;;;;;;17.28;74.96;99465.22;4970738;28;20972;-78
2022/09/10 06:56:04;;;;;;;2.25;1.67;;;;;;;17.33;74.88;99464.81;4967477;28;20215;-77
2022/09/10 06:58:35;;;;;;;3.28;2.00;;;;;;;17.36;74.77;99473.34;4972006;28;20655;-77
2022/09/10 07:01:09;;;;;;;6.70;5.57;;;;;;;17.38;74.86;99463.38;4949448;28;20242;-78
2022/09/10 07:03:35;;;;;;;8.03;7.27;;;;;;;17.41;74.81;99471.06;4967007;28;20533;-78
2022/09/10 07:06:07;;;;;;;13.30;11.77;;;;;;;17.45;74.64;99484.91;4956315;28;20457;-78
2022/09/10 07:08:33;;;;;;;21.00;16.40;;;;;;;17.48;74.46;99484.63;4953630;28;20462;-78
2022/09/10 07:11:04;;;;;;;28.92;19.90;;;;;;;17.51;74.37;99486.97;4952541;28;20489;-78
2022/09/10 07:13:30;;;;;;;22.63;16.00;;;;;;;17.53;74.38;99490.31;4952558;28;20664;-78
2022/09/10 07:15:57;;;;;;;14.90;10.87;;;;;;;17.56;74.07;99486.56;4973034;28;20467;-78
2022/09/10 07:18:24;;;;;;;9.40;7.10;;;;;;;17.57;74.11;99490.88;4952841;28;20540;-78
2022/09/10 07:20:51;;;;;;;3.90;2.70;;;;;;;17.57;74.06;99488.22;4953828;28;20218;-79
2022/09/10 07:23:19;;;;;;;4.27;2.90;;;;;;;17.56;73.95;99497.16;4952487;28;20618;-78
2022/09/10 07:25:46;;;;;;;2.80;2.20;;;;;;;17.56;73.95;99502.47;4950940;28;20463;-78
2022/09/10 07:28:36;;;;;;;2.70;2.17;;;;;;;17.54;73.80;99507.09;4967692;28;21179;-79
2022/09/10 07:31:21;;;;;;;4.00;1.60;;;;;;;17.55;73.84;99508.75;4966780;28;20537;-78
2022/09/10 07:33:49;;;;;;;2.00;1.80;;;;;;;17.54;73.66;99507.94;4958686;23;20619;-74
2022/09/10 07:36:17;;;;;;;6.22;1.73;;;;;;;17.55;73.45;99512.28;4929596;28;20470;-74
2022/09/10 07:38:44;;;;;;;2.20;1.90;;;;;;;17.57;73.39;99514.78;4938556;28;20201;-74
2022/09/10 07:41:12;;;;;;;3.78;1.83;;;;;;;17.57;73.39;99509.47;4934438;28;20543;-74
2022/09/10 07:43:42;;;;;;;5.27;1.80;;;;;;;17.58;73.48;99511.97;4956084;28;20232;-75
2022/09/10 07:46:19;;;;;;;5.60;2.03;;;;;;;17.61;73.15;99513.50;4972643;28;20463;-75
2022/09/10 07:48:51;;;;;;;6.47;2.17;;;;;;;17.61;73.14;99516.16;4972062;28;21332;-75
2022/09/10 07:51:18;;;;;;;4.00;1.40;;;;;;;17.61;73.28;99527.63;4971523;28;20503;-75
2022/09/10 07:53:45;;;;;;;2.33;1.83;;;;;;;17.63;73.01;99530.13;4974955;28;20482;-74
2022/09/10 07:56:11;;;;;;;2.40;1.57;;;;;;;17.66;73.19;99532.47;4956929;28;21385;-75
2022/09/10 07:58:38;;;;;;;5.03;1.93;;;;;;;17.69;72.90;99540.19;4958936;28;21014;-74
2022/09/10 08:01:11;;;;;;;2.20;1.60;;;;;;;17.72;72.83;99533.75;4972758;28;20459;-74
2022/09/10 08:03:38;;;;;;;3.00;1.50;;;;;;;17.74;72.86;99537.94;4975257;28;21032;-74
2022/09/10 08:06:07;;;;;;;4.37;1.97;;;;;;;17.76;72.74;99530.63;4956913;28;20568;-74
2022/09/10 08:08:35;;;;;;;4.63;2.17;;;;;;;17.79;72.64;99527.72;4955540;28;20497;-74
2022/09/10 08:11:06;;;;;;;1.83;1.43;;;;;;;17.86;72.54;99527.97;4972181;28;20836;-74
2022/09/10 08:13:37;;;;;;;2.50;1.40;;;;;;;17.89;72.44;99531.19;4954310;28;20986;-74
2022/09/10 08:16:08;;;;;;;2.40;1.50;;;;;;;17.98;72.38;99533.94;4960853;28;20483;-74
2022/09/10 08:18:34;;;;;;;3.27;1.60;;;;;;;18.04;72.19;99538.69;4947170;28;20477;-74
2022/09/10 08:21:01;;;;;;;1.97;1.57;;;;;;;18.07;71.99;99536.56;4955437;28;20450;-74
2022/09/10 08:23:27;;;;;;;2.30;1.67;;;;;;;18.11;71.89;99545.91;4959552;28;20486;-74
2022/09/10 08:25:53;;;;;;;4.50;1.77;;;;;;;18.17;72.05;99551.63;4957159;28;20959;-74
2022/09/10 08:28:20;;;;;;;3.40;1.70;;;;;;;18.28;71.78;99552.28;4956413;28;20544;-74
2022/09/10 08:31:01;;;;;;;1.30;1.20;;;;;;;18.34;71.15;99551.66;4974309;28;20461;-74
2022/09/10 08:33:38;;;;;;;3.53;1.80;;;;;;;18.36;71.40;99548.84;4968910;28;20479;-74
2022/09/10 08:36:05;;;;;;;2.43;1.70;;;;;;;18.43;71.01;99551.75;4956950;28;20456;-75
2022/09/10 08:38:37;;;;;;;2.03;1.80;;;;;;;18.52;70.95;99553.50;4960010;28;20455;-75
2022/09/10 08:41:20;;;;;;;3.33;1.30;;;;;;;18.57;70.53;99554.72;4958856;28;20509;-74
2022/09/10 08:44:10;;;;;;;2.10;1.20;;;;;;;18.59;70.27;99557.25;4950815;28;20885;-74
2022/09/10 08:46:44;;;;;;;1.13;1.03;;;;;;;18.55;69.82;99561.19;4960684;28;20582;-75
2022/09/10 08:49:18;;;;;;;1.73;1.50;;;;;;;18.52;69.69;99567.66;4960574;28;20470;-74
2022/09/10 08:51:52;;;;;;;1.30;1.00;;;;;;;18.48;70.09;99560.13;4972006;28;20565;-75
2022/09/10 08:54:27;;;;;;;2.07;1.20;;;;;;;18.51;69.78;99559.81;4956033;28;20458;-74
2022/09/10 08:56:57;;;;;;;2.50;1.50;;;;;;;18.60;69.42;99566.91;4959281;28;20451;-75
2022/09/10 08:59:32;;;;;;;1.50;1.20;;;;;;;18.79;69.17;99574.81;4960210;28;20510;-75
2022/09/10 09:02:22;;;;;;;1.27;1.13;;;;;;;18.94;68.33;99569.78;4960506;28;20577;-75
2022/09/10 09:04:59;;;;;;;1.97;1.77;;;;;;;19.02;68.29;99575.16;4970291;28;20569;-74
2022/09/10 09:07:33;;;;;;;2.40;0.93;;;;;;;19.08;67.80;99568.41;4959744;28;20495;-74
2022/09/10 09:10:00;;;;;;;2.70;1.50;;;;;;;19.13;67.63;99565.28;4962164;28;20463;-75
2022/09/10 09:12:44;;;;;;;2.93;1.67;;;;;;;19.15;67.34;99569.47;4959539;28;21011;-74
2022/09/10 09:15:24;;;;;;;3.83;1.43;;;;;;;19.21;67.15;99576.84;4964903;28;20459;-76
2022/09/10 09:17:58;;;;;;;1.23;1.10;;;;;;;19.29;66.75;99580.56;4959852;28;20455;-75
2022/09/10 09:20:53;;;;;;;3.03;1.50;;;;;;;19.30;66.41;99572.41;4955680;28;20879;-75
2022/09/10 09:23:46;;;;;;;2.13;1.30;;;;;;;19.30;66.47;99587.53;4954654;28;20621;-75
2022/09/10 09:26:15;;;;;;;3.38;1.95;;;;;;;19.35;66.83;99583.44;4955171;28;21440;-75
2022/09/10 09:29:05;;;;;;;1.97;1.30;;;;;;;19.31;66.51;99589.22;4957632;28;20200;-75
2022/09/10 09:31:41;;;;;;;2.50;1.67;;;;;;;19.17;66.36;99599.44;4954403;28;21278;-75
2022/09/10 09:34:37;;;;;;;1.80;1.25;;;;;;;19.10;66.54;99593.03;4979520;28;20478;-75
2022/09/10 09:37:33;;;;;;;1.63;1.47;;;;;;;19.10;66.51;99587.72;4956705;28;20224;-75
2022/09/10 09:40:20;;;;;;;2.13;1.20;;;;;;;19.10;66.28;99593.03;4975654;28;20507;-75
2022/09/10 09:42:50;;;;;;;2.03;0.90;;;;;;;19.09;65.96;99594.03;4960155;28;20831;-74
2022/09/10 09:45:38;;;;;;;2.10;1.27;;;;;;;19.08;65.78;99600.34;4974941;28;20579;-75
2022/09/10 09:48:23;;;;;;;1.60;1.50;;;;;;;19.04;65.95;99587.47;4960078;28;20467;-74
2022/09/10 09:50:59;;;;;;;2.27;1.13;;;;;;;18.99;66.17;99593.28;4957707;28;21050;-74
2022/09/10 09:53:26;;;;;;;2.63;1.50;;;;;;;18.94;66.06;99601.72;4964436;28;20483;-74
2022/09/10 09:55:58;;;;;;;4.20;1.37;;;;;;;18.91;66.22;99604.69;4962642;28;20460;-74
2022/09/10 09:58:25;;;;;;;1.53;1.20;;;;;;;18.87;66.32;99594.47;4960697;28;20460;-74
2022/09/10 10:01:02;;;;;;;3.43;1.23;;;;;;;18.79;66.74;99593.44;4957465;28;20474;-74
2022/09/10 10:03:30;;;;;;;2.60;1.40;;;;;;;18.76;67.46;99590.22;4959655;28;20484;-75
2022/09/10 10:06:07;;;;;;;2.27;1.50;;;;;;;18.69;68.12;99591.78;4969206;28;20205;-75
2022/09/10 10:08:33;;;;;;;2.93;1.50;;;;;;;18.65;68.75;99593.06;4959797;28;20910;-75
2022/09/10 10:10:59;;;;;;;2.47;1.10;;;;;;;18.62;68.70;99588.88;4959084;28;20471;-75
2022/09/10 10:13:36;;;;;;;3.53;1.50;;;;;;;18.62;68.81;99591.53;4960443;28;20225;-75
2022/09/10 10:16:16;;;;;;;2.60;1.20;;;;;;;18.64;68.83;99581.59;4957324;28;20554;-75
2022/09/10 10:18:43;;;;;;;1.83;1.73;;;;;;;18.69;69.04;99589.13;4959734;28;20459;-75
2022/09/10 10:21:22;;;;;;;2.37;1.30;;;;;;;18.69;68.39;99600.59;4961461;28;20503;-76
2022/09/10 10:23:48;;;;;;;5.37;1.43;;;;;;;18.68;68.57;99592.75;4961439;28;20491;-74
2022/09/10 10:26:19;;;;;;;2.60;1.57;;;;;;;18.67;68.74;99591.09;4957761;28;20464;-74
2022/09/10 10:28:49;;;;;;;2.17;1.30;;;;;;;18.65;68.82;99598.38;4956644;28;21378;-75
2022/09/10 10:31:16;;;;;;;3.77;1.70;;;;;;;18.61;69.01;99586.38;4961793;28;21007;-75
2022/09/10 10:33:56;;;;;;;2.60;1.80;;;;;;;18.63;68.97;99592.38;4976994;28;20491;-75
2022/09/10 10:36:28;;;;;;;3.40;1.70;;;;;;;18.57;69.09;99591.16;4980310;28;20211;-75
2022/09/10 10:39:07;;;;;;;2.30;1.20;;;;;;;18.56;68.64;99589.47;4982650;28;20475;-75
2022/09/10 10:41:54;;;;;;;3.47;1.50;;;;;;;18.55;68.69;99588.66;4982690;28;20472;-75
2022/09/10 10:44:22;;;;;;;4.23;3.00;;;;;;;18.56;68.94;99584.16;4977285;28;20482;-75
2022/09/10 10:46:53;;;;;;;3.47;2.63;;;;;;;18.60;68.69;99577.53;4982665;28;20475;-75
2022/09/10 10:49:31;;;;;;;4.70;1.77;;;;;;;18.69;68.75;99575.81;4981163;28;20459;-75
2022/09/10 10:52:10;;;;;;;2.80;1.77;;;;;;;18.81;68.20;99566.66;4979951;28;20460;-75
2022/09/10 10:55:13;;;;;;;7.23;1.77;;;;;;;18.98;67.75;99563.16;4982493;28;20455;-75
2022/09/10 10:58:07;;;;;;;2.23;1.43;;;;;;;19.23;66.75;99558.88;4980587;28;20485;-74
2022/09/10 11:00:45;;;;;;;5.27;1.23;;;;;;;19.45;65.86;99551.38;4975310;28;20585;-74
2022/09/10 11:03:41;;;;;;;1.67;1.57;;;;;;;19.66;65.05;99554.56;4980373;28;20470;-79
2022/09/10 11:06:14;;;;;;;3.13;1.30;;;;;;;19.86;64.12;99563.16;4982889;28;20892;-80
2022/09/10 11:08:49;;;;;;;3.83;1.53;;;;;;;20.07;63.44;99544.09;4977456;28;20478;-81
2022/09/10 11:11:37;;;;;;;6.13;1.80;;;;;;;20.28;62.82;99534.81;4983883;28;20521;-78
2022/09/10 11:14:06;;;;;;;2.60;1.20;;;;;;;20.54;61.26;99532.91;4986688;28;20548;-79
2022/09/10 11:16:42;;;;;;;2.17;1.53;;;;;;;20.70;60.53;99520.63;4983566;28;20466;-80
2022/09/10 11:19:18;;;;;;;3.07;1.53;;;;;;;20.90;60.17;99518.44;4983588;28;20489;-75
2022/09/10 11:21:53;;;;;;;1.80;1.10;;;;;;;21.14;59.40;99509.59;4976319;28;20978;-76
2022/09/10 11:24:25;;;;;;;1.63;1.30;;;;;;;21.37;58.40;99501.75;4978711;28;21472;-78
2022/09/10 11:27:13;;;;;;;3.47;2.63;;;;;;;21.59;57.89;99506.41;4975889;28;20453;-75
2022/09/10 11:29:50;;;;;;;2.87;1.50;;;;;;;21.74;57.27;99501.19;4975966;28;20476;-76
2022/09/10 11:32:38;;;;;;;3.77;1.43;;;;;;;21.73;57.07;99499.50;4977484;28;20488;-83
2022/09/10 11:35:12;;;;;;;1.93;1.20;;;;;;;21.71;57.12;99496.19;4978039;28;21148;-75
2022/09/10 11:38:00;;;;;;;3.50;1.40;;;;;;;21.86;56.65;99485.59;4979780;28;20474;-80
2022/09/10 11:41:03;;;;;;;2.13;1.93;;;;;;;22.10;56.16;99482.81;4976785;28;20510;-79
2022/09/10 11:43:35;;;;;;;2.00;1.33;;;;;;;22.32;55.05;99485.72;4981484;28;20472;-81
2022/09/10 11:46:05;;;;;;;3.17;1.40;;;;;;;22.50;54.69;99472.91;4979488;28;20478;-80
2022/09/10 11:48:49;;;;;;;2.40;1.20;;;;;;;22.75;53.15;99480.75;4979801;28;20458;-80
2022/09/10 11:51:29;;;;;;;3.00;1.20;;;;;;;22.91;52.69;99479.78;4977867;28;20452;-76
2022/09/10 11:53:55;;;;;;;2.00;1.20;;;;;;;23.06;51.65;99474.50;4980950;28;20534;-76
2022/09/10 11:56:30;;;;;;;1.30;0.70;;;;;;;23.17;49.26;99474.06;4978744;28;20455;-79